Edmonton Namao Alta., Canada
Current Conditions -  °F | °C
As of 1:00 PM on Wednesday 26 Nov 2014 (Local Time) from CYXD Reporting Station
Few Clouds Few Clouds  
Wind Chill: -6°   Ceiling: Unl
Heat Index: -6°   Visibility: 9mi
Dew Point: -10°   Wind: 2mph
Humidity: 74%   Direction: 240°WSW
Pressure: 30.15"   Gusts: NA
Location:  53.61°N, 113.46°W
Report Text: CYXD 262000Z AUTO 24002KT 9SM FEW054 M06/M10 A3015 RMK SLP255
Loading
Personal Weather Stations






























Interactive Weather Map New forecast layout! Learn more

10-Day Weather Forecast

Advertisements
Track Severe Weather on mobile